createdAt,value
2022-11-14T00:00:49.770Z,6.03
2022-11-14T00:01:49.745Z,6.12
2022-11-14T00:02:49.755Z,6.09
2022-11-14T00:03:49.689Z,6.15
2022-11-14T00:04:49.667Z,6.15
2022-11-14T00:05:49.635Z,6.14
2022-11-14T00:06:49.840Z,6.11
2022-11-14T00:07:49.588Z,6.12
2022-11-14T00:08:49.559Z,6.04
2022-11-14T00:09:49.529Z,6.03
2022-11-14T00:10:49.506Z,6.03
2022-11-14T00:11:49.482Z,6.01
2022-11-14T00:12:49.453Z,6.00
2022-11-14T00:13:49.425Z,6.03
2022-11-14T00:14:49.401Z,6.00
2022-11-14T00:15:49.373Z,6.04
2022-11-14T00:16:49.345Z,6.06
2022-11-14T00:17:49.326Z,6.03
2022-11-14T00:18:49.292Z,6.09
2022-11-14T00:19:49.266Z,5.99
2022-11-14T00:20:49.242Z,5.99
2022-11-14T00:21:49.215Z,6.06
2022-11-14T00:22:49.312Z,6.01
2022-11-14T00:23:49.168Z,6.00
2022-11-14T00:24:49.132Z,5.90
2022-11-14T00:25:49.107Z,5.96
2022-11-14T00:26:49.086Z,5.96
2022-11-14T00:27:49.059Z,5.94
2022-11-14T00:28:49.034Z,5.94
2022-11-14T00:29:49.008Z,5.96
2022-11-14T00:30:48.999Z,6.01
2022-11-14T00:31:48.950Z,6.01
2022-11-14T00:32:48.928Z,5.97
2022-11-14T00:33:48.900Z,5.93
2022-11-14T00:34:48.868Z,5.93
2022-11-14T00:35:48.845Z,5.96
2022-11-14T00:36:48.815Z,5.85
2022-11-14T00:37:48.792Z,5.81
2022-11-14T00:38:48.962Z,5.81
2022-11-14T00:39:48.736Z,5.81
2022-11-14T00:40:48.712Z,5.78
2022-11-14T00:41:48.688Z,5.91
2022-11-14T00:42:48.668Z,5.82
2022-11-14T00:43:48.634Z,5.81
2022-11-14T00:44:48.612Z,5.90
2022-11-14T00:45:48.585Z,5.99
2022-11-14T00:46:48.553Z,5.94
2022-11-14T00:47:48.527Z,5.94
2022-11-14T00:48:48.504Z,5.93
2022-11-14T00:49:48.471Z,5.91
2022-11-14T00:50:48.464Z,5.96
2022-11-14T00:51:48.428Z,5.94
2022-11-14T00:52:48.403Z,5.97
2022-11-14T00:53:48.368Z,5.96
2022-11-14T00:54:48.457Z,5.91
2022-11-14T00:55:48.311Z,5.91
2022-11-14T00:56:48.294Z,5.94
2022-11-14T00:57:48.272Z,5.79
2022-11-14T00:58:48.239Z,5.78
2022-11-14T00:59:48.208Z,5.86
2022-11-14T01:00:48.230Z,5.86
2022-11-14T01:01:48.177Z,5.81
2022-11-14T01:02:48.137Z,5.78
2022-11-14T01:03:48.107Z,5.76
2022-11-14T01:04:48.081Z,5.60
2022-11-14T01:05:48.055Z,5.60
2022-11-14T01:06:48.025Z,5.76
2022-11-14T01:07:47.999Z,5.61
2022-11-14T01:08:48.003Z,5.60
2022-11-14T01:09:47.946Z,5.64
2022-11-14T01:10:48.034Z,5.60
2022-11-14T01:11:47.895Z,5.67
2022-11-14T01:12:47.867Z,5.67
2022-11-14T01:13:47.836Z,5.65
2022-11-14T01:14:47.814Z,5.56
2022-11-14T01:15:47.788Z,5.61
2022-11-14T01:16:47.766Z,5.61
2022-11-14T01:17:47.739Z,5.65
2022-11-14T01:18:47.708Z,5.67
2022-11-14T01:19:47.676Z,5.68
2022-11-14T01:20:47.654Z,5.83
2022-11-14T01:21:47.627Z,5.85
2022-11-14T01:22:47.606Z,5.78
2022-11-14T01:23:47.572Z,5.79
2022-11-14T01:24:47.547Z,5.82
2022-11-14T01:25:47.525Z,5.83
2022-11-14T01:26:47.609Z,5.91
2022-11-14T01:27:47.470Z,5.90
2022-11-14T01:28:47.444Z,5.89
2022-11-14T01:29:47.414Z,5.82
2022-11-14T01:30:47.392Z,5.89
2022-11-14T01:31:47.362Z,5.90
2022-11-14T01:32:47.344Z,5.90
2022-11-14T01:33:47.311Z,5.82
2022-11-14T01:34:47.288Z,5.83
2022-11-14T01:35:47.261Z,5.81
2022-11-14T01:36:47.229Z,5.90
2022-11-14T01:37:47.208Z,5.93
2022-11-14T01:38:47.186Z,5.89
2022-11-14T01:39:47.152Z,5.90
2022-11-14T01:40:47.126Z,5.79
2022-11-14T01:41:47.099Z,5.60
2022-11-14T01:42:47.191Z,5.60
2022-11-14T01:43:47.050Z,5.36
2022-11-14T01:44:47.019Z,5.35
2022-11-14T01:45:46.992Z,5.21
2022-11-14T01:46:46.967Z,5.20
2022-11-14T01:47:46.949Z,5.12
2022-11-14T01:48:46.913Z,5.07
2022-11-14T01:49:46.885Z,5.03
2022-11-14T01:50:46.866Z,5.00
2022-11-14T01:51:46.831Z,5.10
2022-11-14T01:52:46.806Z,5.15
2022-11-14T01:53:46.781Z,5.12
2022-11-14T01:54:46.763Z,5.22
2022-11-14T01:55:46.725Z,5.30
2022-11-14T01:56:46.702Z,5.31
2022-11-14T01:57:46.672Z,5.24
2022-11-14T01:58:46.767Z,5.31
2022-11-14T01:59:46.619Z,5.39
2022-11-14T02:00:46.595Z,5.39
2022-11-14T02:01:46.617Z,5.33
2022-11-14T02:02:46.541Z,5.43
2022-11-14T02:03:46.513Z,5.39
2022-11-14T02:04:46.488Z,5.39
2022-11-14T02:05:46.459Z,5.43
2022-11-14T02:06:46.568Z,5.40
2022-11-14T02:07:46.404Z,5.38
2022-11-14T02:08:46.385Z,5.39
2022-11-14T02:09:46.354Z,5.38
2022-11-14T02:10:46.332Z,5.43
2022-11-14T02:11:46.302Z,5.46
2022-11-14T02:12:46.280Z,5.42
2022-11-14T02:13:46.248Z,5.48
2022-11-14T02:14:46.336Z,5.43
2022-11-14T02:15:46.194Z,5.46
2022-11-14T02:17:07.251Z,5.43
2022-11-14T02:17:46.139Z,5.48
2022-11-14T02:18:46.116Z,5.42
2022-11-14T02:19:46.085Z,5.53
2022-11-14T02:20:46.061Z,5.51
2022-11-14T02:21:46.035Z,5.45
2022-11-14T02:22:46.006Z,5.49
2022-11-14T02:23:45.981Z,5.51
2022-11-14T02:24:45.959Z,5.54
2022-11-14T02:25:45.927Z,5.51
2022-11-14T02:26:45.908Z,5.49
2022-11-14T02:27:45.871Z,5.57
2022-11-14T02:28:45.846Z,5.53
2022-11-14T02:29:45.820Z,5.46
2022-11-14T02:30:45.910Z,5.49
2022-11-14T02:31:45.766Z,5.43
2022-11-14T02:33:09.551Z,5.57
2022-11-14T02:33:45.715Z,5.45
2022-11-14T02:34:45.687Z,5.51
2022-11-14T02:35:45.660Z,5.61
2022-11-14T02:36:45.636Z,5.49
2022-11-14T02:37:45.611Z,5.48
2022-11-14T02:38:45.580Z,5.58
2022-11-14T02:39:45.552Z,5.51
2022-11-14T02:40:45.535Z,5.49
2022-11-14T02:41:45.503Z,5.40
2022-11-14T02:42:45.480Z,5.42
2022-11-14T02:43:45.448Z,5.46
2022-11-14T02:44:45.423Z,5.39
2022-11-14T02:45:45.396Z,5.42
2022-11-14T02:46:45.487Z,5.46
2022-11-14T02:47:45.346Z,5.31
2022-11-14T02:48:45.315Z,5.30
2022-11-14T02:49:45.292Z,5.30
2022-11-14T02:50:45.264Z,5.33
2022-11-14T02:51:45.232Z,5.28
2022-11-14T02:52:45.219Z,5.31
2022-11-14T02:53:45.183Z,5.36
2022-11-14T02:54:46.593Z,5.25
2022-11-14T02:55:45.125Z,5.30
2022-11-14T02:56:45.102Z,5.36
2022-11-14T02:57:45.074Z,5.25
2022-11-14T02:58:45.055Z,5.25
2022-11-14T02:59:45.020Z,5.33
2022-11-14T03:01:13.553Z,5.38
2022-11-14T03:01:45.035Z,5.42
2022-11-14T03:02:45.059Z,5.31
2022-11-14T03:03:44.911Z,5.28
2022-11-14T03:04:44.890Z,5.15
2022-11-14T03:05:44.860Z,5.21
2022-11-14T03:06:44.894Z,5.21
2022-11-14T03:07:44.807Z,5.22
2022-11-14T03:08:44.789Z,5.13
2022-11-14T03:09:44.755Z,5.12
2022-11-14T03:10:44.730Z,5.07
2022-11-14T03:11:44.699Z,5.06
2022-11-14T03:12:44.675Z,5.03
2022-11-14T03:13:44.651Z,5.04
2022-11-14T03:14:44.621Z,5.18
2022-11-14T03:15:44.593Z,5.15
2022-11-14T03:16:44.574Z,5.27
2022-11-14T03:17:44.540Z,5.12
2022-11-14T03:18:44.637Z,5.21
2022-11-14T03:19:44.488Z,5.18
2022-11-14T03:20:44.465Z,5.21
2022-11-14T03:21:44.434Z,5.22
2022-11-14T03:22:44.408Z,5.30
2022-11-14T03:23:44.379Z,5.30
2022-11-14T03:24:44.366Z,5.25
2022-11-14T03:25:44.326Z,5.22
2022-11-14T03:26:44.326Z,5.20
2022-11-14T03:27:44.273Z,5.12
2022-11-14T03:28:44.251Z,5.15
2022-11-14T03:29:44.222Z,5.12
2022-11-14T03:30:44.199Z,5.09
2022-11-14T03:31:44.168Z,5.25
2022-11-14T03:32:44.143Z,5.10
2022-11-14T03:33:44.112Z,5.27
2022-11-14T03:34:44.203Z,5.25
2022-11-14T03:35:44.057Z,5.09
2022-11-14T03:36:44.032Z,5.25
2022-11-14T03:37:44.006Z,5.22
2022-11-14T03:38:43.981Z,5.21
2022-11-14T03:39:43.951Z,5.20
2022-11-14T03:40:43.924Z,5.17
2022-11-14T03:41:43.900Z,5.20
2022-11-14T03:42:43.876Z,5.28
2022-11-14T03:43:43.848Z,5.21
2022-11-14T03:44:43.831Z,5.30
2022-11-14T03:45:43.793Z,5.35
2022-11-14T03:46:43.770Z,5.27
2022-11-14T03:47:43.745Z,5.22
2022-11-14T03:48:43.716Z,5.25
2022-11-14T03:49:43.687Z,5.25
2022-11-14T03:50:43.788Z,5.28
2022-11-14T03:51:43.632Z,5.33
2022-11-14T03:52:43.606Z,5.28
2022-11-14T03:53:43.582Z,5.33
2022-11-14T03:54:43.557Z,5.30
2022-11-14T03:55:43.520Z,5.33
2022-11-14T03:56:43.501Z,5.24
2022-11-14T03:57:43.476Z,5.25
2022-11-14T03:58:43.447Z,5.28
2022-11-14T03:59:43.414Z,5.25
2022-11-14T04:00:43.440Z,5.22
2022-11-14T04:01:43.366Z,5.21
2022-11-14T04:02:43.339Z,5.24
2022-11-14T04:03:43.318Z,5.24
2022-11-14T04:04:43.285Z,5.15
2022-11-14T04:05:43.262Z,5.07
2022-11-14T04:06:43.439Z,5.00
2022-11-14T04:07:43.205Z,5.03
2022-11-14T04:08:43.177Z,4.96
2022-11-14T04:09:43.155Z,4.94
2022-11-14T04:10:43.125Z,4.91
2022-11-14T04:11:43.095Z,4.91
2022-11-14T04:12:43.069Z,4.99
2022-11-14T04:13:43.043Z,4.89
2022-11-14T04:14:43.019Z,4.89
2022-11-14T04:15:42.990Z,4.91
2022-11-14T04:16:42.969Z,5.00
2022-11-14T04:17:42.936Z,4.89
2022-11-14T04:18:42.909Z,4.91
2022-11-14T04:19:42.893Z,5.02
2022-11-14T04:20:42.860Z,4.99
2022-11-14T04:21:42.832Z,5.07
2022-11-14T04:22:42.915Z,5.12
2022-11-14T04:23:42.777Z,5.12
2022-11-14T04:24:42.752Z,5.13
2022-11-14T04:25:42.723Z,5.04
2022-11-14T04:26:42.694Z,4.97
2022-11-14T04:27:42.683Z,4.91
2022-11-14T04:28:42.644Z,4.84
2022-11-14T04:29:42.614Z,4.73
2022-11-14T04:30:42.586Z,4.66
2022-11-14T04:31:42.567Z,4.67
2022-11-14T04:32:42.535Z,4.62
2022-11-14T04:33:42.510Z,4.67
2022-11-14T04:34:42.482Z,4.52
2022-11-14T04:35:42.458Z,4.55
2022-11-14T04:36:42.428Z,4.62
2022-11-14T04:37:42.401Z,4.69
2022-11-14T04:38:42.492Z,4.60
2022-11-14T04:39:42.352Z,4.58
2022-11-14T04:40:42.320Z,4.63
2022-11-14T04:41:42.295Z,4.55
2022-11-14T04:42:42.265Z,4.62
2022-11-14T04:43:45.557Z,4.55
2022-11-14T04:44:42.305Z,4.65
2022-11-14T04:45:42.185Z,4.52
2022-11-14T04:46:42.162Z,4.55
2022-11-14T04:47:42.135Z,4.70
2022-11-14T04:48:42.122Z,4.65
2022-11-14T04:49:42.086Z,4.55
2022-11-14T04:50:42.051Z,4.54
2022-11-14T04:51:42.025Z,4.65
2022-11-14T04:52:41.995Z,4.52
2022-11-14T04:53:41.976Z,4.62
2022-11-14T04:54:42.060Z,4.54
2022-11-14T04:55:41.920Z,4.60
2022-11-14T04:56:41.896Z,4.58
2022-11-14T04:57:41.865Z,4.78
2022-11-14T04:58:41.839Z,4.70
2022-11-14T04:59:41.811Z,4.84
2022-11-14T05:00:41.781Z,4.67
2022-11-14T05:01:41.930Z,4.86
2022-11-14T05:02:41.730Z,4.69
2022-11-14T05:03:41.708Z,4.70
2022-11-14T05:04:41.674Z,4.65
2022-11-14T05:05:42.377Z,4.66
2022-11-14T05:06:41.623Z,4.65
2022-11-14T05:07:41.597Z,4.66
2022-11-14T05:08:41.568Z,4.62
2022-11-14T05:09:41.542Z,4.72
2022-11-14T05:10:41.532Z,4.77
2022-11-14T05:11:41.485Z,4.66
2022-11-14T05:12:41.463Z,4.66
2022-11-14T05:13:41.434Z,4.62
2022-11-14T05:14:41.406Z,4.80
2022-11-14T05:15:41.379Z,4.72
2022-11-14T05:16:41.351Z,4.78
2022-11-14T05:17:41.327Z,4.73
2022-11-14T05:18:46.718Z,4.84
2022-11-14T05:19:41.277Z,4.77
2022-11-14T05:20:41.248Z,4.77
2022-11-14T05:21:41.224Z,4.84
2022-11-14T05:22:41.197Z,4.82
2022-11-14T05:23:41.179Z,4.86
2022-11-14T05:24:41.138Z,4.85
2022-11-14T05:25:41.109Z,4.88
2022-11-14T05:26:41.111Z,4.86
2022-11-14T05:27:41.080Z,4.89
2022-11-14T05:28:41.030Z,4.80
2022-11-14T05:29:41.005Z,4.91
2022-11-14T05:30:40.978Z,4.92
2022-11-14T05:31:40.949Z,4.86
2022-11-14T05:32:40.923Z,4.89
2022-11-14T05:33:40.894Z,4.92
2022-11-14T05:34:40.869Z,4.85
2022-11-14T05:35:40.851Z,4.72
2022-11-14T05:36:40.821Z,4.65
2022-11-14T05:37:40.787Z,4.52
2022-11-14T05:38:40.765Z,4.40
2022-11-14T05:39:40.734Z,4.30
2022-11-14T05:40:40.713Z,4.30
2022-11-14T05:41:40.682Z,4.26
2022-11-14T05:42:40.673Z,4.23
2022-11-14T05:43:40.625Z,4.27
2022-11-14T05:44:40.601Z,4.29
2022-11-14T05:45:40.576Z,4.32
2022-11-14T05:46:40.548Z,4.32
2022-11-14T05:47:40.520Z,4.26
2022-11-14T05:48:40.505Z,4.34
2022-11-14T05:49:40.476Z,4.29
2022-11-14T05:50:40.445Z,4.32
2022-11-14T05:51:40.419Z,4.33
2022-11-14T05:52:40.382Z,4.33
2022-11-14T05:53:40.356Z,4.29
2022-11-14T05:54:40.335Z,4.33
2022-11-14T05:55:40.310Z,4.29
2022-11-14T05:56:40.277Z,4.37
2022-11-14T05:57:40.254Z,4.44
2022-11-14T05:58:40.249Z,4.41
2022-11-14T05:59:40.198Z,4.54
2022-11-14T06:00:45.740Z,4.50
2022-11-14T06:01:40.176Z,4.47
2022-11-14T06:02:40.115Z,4.48
2022-11-14T06:03:40.089Z,4.44
2022-11-14T06:04:40.063Z,4.45
2022-11-14T06:05:40.032Z,4.45
2022-11-14T06:06:40.008Z,4.40
2022-11-14T06:07:40.100Z,4.29
2022-11-14T06:08:39.958Z,4.23
2022-11-14T06:09:39.926Z,4.26
2022-11-14T06:10:39.901Z,4.26
2022-11-14T06:11:39.874Z,4.32
2022-11-14T06:12:39.894Z,4.32
2022-11-14T06:13:39.816Z,4.41
2022-11-14T06:14:39.808Z,4.37
2022-11-14T06:15:39.764Z,4.44
2022-11-14T06:16:39.738Z,4.48
2022-11-14T06:17:39.717Z,4.42
2022-11-14T06:18:39.680Z,4.45
2022-11-14T06:19:39.658Z,4.45
2022-11-14T06:20:39.624Z,4.48
2022-11-14T06:21:39.603Z,4.37
2022-11-14T06:22:39.579Z,4.42
2022-11-14T06:23:39.546Z,4.41
2022-11-14T06:24:39.516Z,4.33
2022-11-14T06:25:39.501Z,4.30
2022-11-14T06:26:39.471Z,4.16
2022-11-14T06:27:39.437Z,4.18
2022-11-14T06:28:39.414Z,4.09
2022-11-14T06:29:39.383Z,4.05
2022-11-14T06:30:39.388Z,3.93
2022-11-14T06:31:39.330Z,3.87
2022-11-14T06:32:39.304Z,3.87
2022-11-14T06:33:39.280Z,3.79
2022-11-14T06:34:39.252Z,3.91
2022-11-14T06:35:39.229Z,3.93
2022-11-14T06:36:39.190Z,3.91
2022-11-14T06:37:39.168Z,3.90
2022-11-14T06:38:39.142Z,3.94
2022-11-14T06:39:39.116Z,4.00
2022-11-14T06:40:39.090Z,3.98
2022-11-14T06:41:39.063Z,4.02
2022-11-14T06:42:39.031Z,3.87
2022-11-14T06:43:39.003Z,3.91
2022-11-14T06:44:38.975Z,3.97
2022-11-14T06:45:38.949Z,3.86
2022-11-14T06:46:38.947Z,3.97
2022-11-14T06:47:38.893Z,3.91
2022-11-14T06:48:38.866Z,3.86
2022-11-14T06:49:40.729Z,3.73
2022-11-14T06:50:38.815Z,3.76
2022-11-14T06:51:38.790Z,3.73
2022-11-14T06:52:38.761Z,3.61
2022-11-14T06:53:38.733Z,3.61
2022-11-14T06:54:38.705Z,3.62
2022-11-14T06:55:38.682Z,3.62
2022-11-14T06:56:38.656Z,3.70
2022-11-14T06:57:38.624Z,3.61
2022-11-14T06:58:38.594Z,3.70
2022-11-14T06:59:38.567Z,3.72
2022-11-14T07:00:38.541Z,3.78
2022-11-14T07:01:38.514Z,3.75
2022-11-14T07:02:38.556Z,3.75
2022-11-14T07:03:38.462Z,3.73
2022-11-14T07:04:38.427Z,3.80
2022-11-14T07:05:38.401Z,3.86
2022-11-14T07:06:38.387Z,3.90
2022-11-14T07:07:38.375Z,3.93
2022-11-14T07:08:38.320Z,3.96
2022-11-14T07:09:38.304Z,4.04
2022-11-14T07:10:38.268Z,4.04
2022-11-14T07:11:38.242Z,4.14
2022-11-14T07:12:38.216Z,4.16
2022-11-14T07:13:38.188Z,4.16
2022-11-14T07:14:38.186Z,4.22
2022-11-14T07:15:38.144Z,4.24
2022-11-14T07:16:38.115Z,4.23
2022-11-14T07:17:38.075Z,4.18
2022-11-14T07:18:38.071Z,4.24
2022-11-14T07:19:38.030Z,4.09
2022-11-14T07:20:37.998Z,4.11
2022-11-14T07:21:37.967Z,4.08
2022-11-14T07:22:37.943Z,4.06
2022-11-14T07:23:37.916Z,4.04
2022-11-14T07:24:37.892Z,4.02
2022-11-14T07:25:37.872Z,4.15
2022-11-14T07:26:37.828Z,4.05
2022-11-14T07:27:37.806Z,4.08
2022-11-14T07:28:37.787Z,4.18
2022-11-14T07:29:37.748Z,4.12
2022-11-14T07:30:37.724Z,4.11
2022-11-14T07:31:37.702Z,4.20
2022-11-14T07:32:37.667Z,4.26
2022-11-14T07:33:37.641Z,4.29
2022-11-14T07:34:37.637Z,4.33
2022-11-14T07:35:37.590Z,4.44
2022-11-14T07:36:37.571Z,4.45
2022-11-14T07:37:37.535Z,4.48
2022-11-14T07:38:37.509Z,4.47
2022-11-14T07:39:37.482Z,4.59
2022-11-14T07:40:37.463Z,4.54
2022-11-14T07:41:37.429Z,4.58
2022-11-14T07:42:37.401Z,4.60
2022-11-14T07:43:37.368Z,4.73
2022-11-14T07:44:37.343Z,4.65
2022-11-14T07:45:37.317Z,4.72
2022-11-14T07:46:37.291Z,4.60
2022-11-14T07:47:37.264Z,4.59
2022-11-14T07:48:37.236Z,4.69
2022-11-14T07:49:37.211Z,4.60
2022-11-14T07:50:37.209Z,4.66
2022-11-14T07:51:37.156Z,4.63
2022-11-14T07:52:37.123Z,4.80
2022-11-14T07:53:37.103Z,4.77
2022-11-14T07:54:37.076Z,4.72
2022-11-14T07:55:37.050Z,4.73
2022-11-14T07:56:37.017Z,4.78
2022-11-14T07:57:41.879Z,4.77
2022-11-14T07:58:36.964Z,4.78
2022-11-14T07:59:36.937Z,4.82
2022-11-14T08:00:36.977Z,4.86
2022-11-14T08:01:36.922Z,4.86
2022-11-14T08:02:36.860Z,4.85
2022-11-14T08:03:40.922Z,4.88
2022-11-14T08:04:36.808Z,4.89
2022-11-14T08:05:36.781Z,4.91
2022-11-14T08:06:36.761Z,4.97
2022-11-14T08:07:36.762Z,4.99
2022-11-14T08:08:36.697Z,5.03
2022-11-14T08:09:36.671Z,5.06
2022-11-14T08:10:36.647Z,5.03
2022-11-14T08:11:36.622Z,5.09
2022-11-14T08:12:36.586Z,5.13
2022-11-14T08:13:36.563Z,5.09
2022-11-14T08:14:36.533Z,5.18
2022-11-14T08:15:36.508Z,5.07
2022-11-14T08:16:36.495Z,5.10
2022-11-14T08:17:36.451Z,5.12
2022-11-14T08:18:36.429Z,5.12
2022-11-14T08:19:36.404Z,5.24
2022-11-14T08:20:36.373Z,5.18
2022-11-14T08:21:36.360Z,5.20
2022-11-14T08:22:36.345Z,5.20
2022-11-14T08:23:36.295Z,5.22
2022-11-14T08:24:36.263Z,5.22
2022-11-14T08:25:36.233Z,5.17
2022-11-14T08:26:36.212Z,5.20
2022-11-14T08:27:36.186Z,5.21
2022-11-14T08:28:36.157Z,5.20
2022-11-14T08:29:36.134Z,5.22
2022-11-14T08:30:36.104Z,5.22
2022-11-14T08:31:36.081Z,5.17
2022-11-14T08:32:36.052Z,5.25
2022-11-14T08:33:36.022Z,5.20
2022-11-14T08:34:35.997Z,5.21
2022-11-14T08:35:35.967Z,5.27
2022-11-14T08:36:35.943Z,5.28
2022-11-14T08:37:35.917Z,5.30
2022-11-14T08:38:35.921Z,5.40
2022-11-14T08:39:35.857Z,5.46
2022-11-14T08:40:35.835Z,5.33
2022-11-14T08:41:35.804Z,5.48
2022-11-14T08:42:35.777Z,5.51
2022-11-14T08:43:35.761Z,5.42
2022-11-14T08:44:35.724Z,5.48
2022-11-14T08:45:35.700Z,5.57
2022-11-14T08:46:35.683Z,5.48
2022-11-14T08:47:35.654Z,5.71
2022-11-14T08:48:35.619Z,5.65
2022-11-14T08:49:35.589Z,5.65
2022-11-14T08:50:35.568Z,5.63
2022-11-14T08:51:36.597Z,5.71
2022-11-14T08:52:35.523Z,5.74
2022-11-14T08:53:35.486Z,5.68
2022-11-14T08:54:35.477Z,5.83
2022-11-14T08:55:35.433Z,5.76
2022-11-14T08:56:35.404Z,5.78
2022-11-14T08:57:35.377Z,5.85
2022-11-14T08:58:35.350Z,5.82
2022-11-14T08:59:35.324Z,5.78
2022-11-14T09:00:35.297Z,5.93
2022-11-14T09:01:35.277Z,5.83
2022-11-14T09:02:35.247Z,5.85
2022-11-14T09:03:35.269Z,5.91
2022-11-14T09:04:35.252Z,5.99
2022-11-14T09:05:35.168Z,5.91
2022-11-14T09:06:35.139Z,5.99
2022-11-14T09:07:35.203Z,5.93
2022-11-14T09:08:35.079Z,6.06
2022-11-14T09:09:35.058Z,6.03
2022-11-14T09:10:35.057Z,6.03
2022-11-14T09:11:35.008Z,6.04
2022-11-14T09:12:34.978Z,6.11
2022-11-14T09:13:34.947Z,6.08
2022-11-14T09:14:34.940Z,6.08
2022-11-14T09:15:34.898Z,6.04
2022-11-14T09:16:34.869Z,6.11
2022-11-14T09:17:34.843Z,6.19
2022-11-14T09:18:34.816Z,6.15
2022-11-14T09:19:34.788Z,6.12
2022-11-14T09:20:39.705Z,6.22
2022-11-14T09:21:34.735Z,6.28
2022-11-14T09:22:34.711Z,6.30
2022-11-14T09:23:34.679Z,6.36
2022-11-14T09:24:34.665Z,6.38
2022-11-14T09:25:34.625Z,6.48
2022-11-14T09:26:34.627Z,6.44
2022-11-14T09:27:34.575Z,6.40
2022-11-14T09:28:34.555Z,6.49
2022-11-14T09:29:34.526Z,6.52
2022-11-14T09:30:34.498Z,6.56
2022-11-14T09:31:34.463Z,6.61
2022-11-14T09:32:34.443Z,6.59
2022-11-14T09:33:34.416Z,6.59
2022-11-14T09:34:34.401Z,6.66
2022-11-14T09:35:34.367Z,6.62
2022-11-14T09:36:34.341Z,6.62
2022-11-14T09:37:34.313Z,6.74
2022-11-14T09:38:38.390Z,6.67
2022-11-14T09:39:34.257Z,6.73
2022-11-14T09:40:34.234Z,6.79
2022-11-14T09:41:34.204Z,6.80
2022-11-14T09:42:34.200Z,6.80
2022-11-14T09:43:34.151Z,6.85
2022-11-14T09:44:34.130Z,6.80
2022-11-14T09:45:34.097Z,6.85
2022-11-14T09:46:34.072Z,6.84
2022-11-14T09:47:34.042Z,6.89
2022-11-14T09:48:34.026Z,6.85
2022-11-14T09:49:33.985Z,6.98
2022-11-14T09:50:33.967Z,6.92
2022-11-14T09:51:33.938Z,6.95
2022-11-14T09:52:33.911Z,6.97
2022-11-14T09:53:33.890Z,6.97
2022-11-14T09:54:33.860Z,7.06
2022-11-14T09:55:37.170Z,6.92
2022-11-14T09:56:33.806Z,7.03
2022-11-14T09:57:33.781Z,7.05
2022-11-14T09:58:33.773Z,7.15
2022-11-14T09:59:33.730Z,7.12
2022-11-14T10:00:33.701Z,7.09
2022-11-14T10:01:33.751Z,7.20
2022-11-14T10:02:33.648Z,7.15
2022-11-14T10:03:33.619Z,7.25
2022-11-14T10:04:33.599Z,7.27
2022-11-14T10:05:33.578Z,7.17
2022-11-14T10:06:33.540Z,7.23
2022-11-14T10:07:33.563Z,7.24
2022-11-14T10:08:33.486Z,7.31
2022-11-14T10:09:33.457Z,7.35
2022-11-14T10:10:38.460Z,7.32
2022-11-14T10:11:33.408Z,7.35
2022-11-14T10:12:33.399Z,7.45
2022-11-14T10:13:33.442Z,7.53
2022-11-14T10:14:33.353Z,7.45
2022-11-14T10:15:34.173Z,7.48
2022-11-14T10:16:33.276Z,7.48
2022-11-14T10:17:33.260Z,7.50
2022-11-14T10:18:33.371Z,7.63
2022-11-14T10:19:33.204Z,7.69
2022-11-14T10:20:33.177Z,7.69
2022-11-14T10:21:33.146Z,7.63
2022-11-14T10:22:33.118Z,7.69
2022-11-14T10:23:33.378Z,7.74
2022-11-14T10:24:33.063Z,7.80
2022-11-14T10:25:33.043Z,7.80
2022-11-14T10:26:33.015Z,7.83
2022-11-14T10:27:32.987Z,7.93
2022-11-14T10:28:33.173Z,7.92
2022-11-14T10:29:32.939Z,7.95
2022-11-14T10:30:32.934Z,7.92
2022-11-14T10:31:32.888Z,7.90
2022-11-14T10:32:32.870Z,7.89
2022-11-14T10:33:32.827Z,8.01
2022-11-14T10:34:32.812Z,7.95
2022-11-14T10:35:35.228Z,8.00
2022-11-14T10:36:32.759Z,7.95
2022-11-14T10:37:32.737Z,7.98
2022-11-14T10:38:33.048Z,8.00
2022-11-14T10:39:32.681Z,8.07
2022-11-14T10:40:32.656Z,8.05
2022-11-14T10:41:56.318Z,8.15
2022-11-14T10:42:32.609Z,8.10
2022-11-14T10:43:32.567Z,8.18
2022-11-14T10:44:32.544Z,8.20
2022-11-14T10:45:32.512Z,8.12
2022-11-14T10:46:32.524Z,8.20
2022-11-14T10:47:32.470Z,8.18
2022-11-14T10:48:32.872Z,8.34
2022-11-14T10:49:32.412Z,8.34
2022-11-14T10:50:32.393Z,8.37
2022-11-14T10:51:32.363Z,8.37
2022-11-14T10:52:32.344Z,8.40
2022-11-14T10:53:32.310Z,8.38
2022-11-14T10:54:32.283Z,8.41
2022-11-14T10:56:32.235Z,8.50
2022-11-14T10:57:32.204Z,8.53
2022-11-14T10:58:46.793Z,8.55
2022-11-14T10:59:32.165Z,8.59
2022-11-14T11:00:32.127Z,8.55
2022-11-14T11:01:32.166Z,8.58
2022-11-14T11:02:36.233Z,8.62
2022-11-14T11:03:32.090Z,8.73
2022-11-14T11:04:32.021Z,8.56
2022-11-14T11:05:31.999Z,8.71
2022-11-14T11:06:31.981Z,8.68
2022-11-14T11:07:32.047Z,8.65
2022-11-14T11:08:47.653Z,8.70
2022-11-14T11:09:32.064Z,8.74
2022-11-14T11:10:31.869Z,8.80
2022-11-14T11:11:31.852Z,8.84
2022-11-14T11:12:31.889Z,8.84
2022-11-14T11:13:31.791Z,8.73
2022-11-14T11:14:31.766Z,8.77
2022-11-14T11:15:31.832Z,8.81
2022-11-14T11:16:31.715Z,8.83
2022-11-14T11:17:38.586Z,8.80
2022-11-14T11:18:32.072Z,8.86
2022-11-14T11:19:31.636Z,8.84
2022-11-14T11:20:31.616Z,8.84
2022-11-14T11:21:31.674Z,8.96
2022-11-14T11:22:31.556Z,8.94
2022-11-14T11:23:31.532Z,9.01
2022-11-14T11:24:31.503Z,9.02
2022-11-14T11:25:31.484Z,8.96
2022-11-14T11:26:31.467Z,9.08
2022-11-14T11:27:31.424Z,9.13
2022-11-14T11:28:31.642Z,9.14
2022-11-14T11:29:31.376Z,9.13
2022-11-14T11:30:31.364Z,9.10
2022-11-14T11:31:31.326Z,9.20
2022-11-14T11:32:31.303Z,9.24
2022-11-14T11:33:31.524Z,9.29
2022-11-14T11:34:31.289Z,9.33
2022-11-14T11:35:31.223Z,9.35
2022-11-14T11:36:31.202Z,9.29
2022-11-14T11:37:31.175Z,9.36
2022-11-14T11:38:31.423Z,9.40
2022-11-14T11:39:31.117Z,9.43
2022-11-14T11:40:31.094Z,9.53
2022-11-14T11:42:06.189Z,9.47
2022-11-14T11:42:58.753Z,9.57
2022-11-14T11:43:39.669Z,9.58
2022-11-14T11:44:30.991Z,9.54
2022-11-14T11:45:30.974Z,9.56
2022-11-14T11:46:30.938Z,9.56
2022-11-14T11:47:30.915Z,9.60
2022-11-14T11:48:30.893Z,9.58
2022-11-14T11:49:30.867Z,9.60
2022-11-14T11:50:30.862Z,9.58
2022-11-14T11:51:30.814Z,9.68
2022-11-14T11:52:30.793Z,9.69
2022-11-14T11:53:31.098Z,9.76
2022-11-14T11:54:30.732Z,9.76
2022-11-14T11:55:30.709Z,9.84
2022-11-14T11:56:30.686Z,9.78
2022-11-14T11:57:30.655Z,9.81
2022-11-14T11:58:30.638Z,9.83
2022-11-14T11:59:30.605Z,9.83
2022-11-14T12:00:30.584Z,9.81
2022-11-14T12:01:30.555Z,9.78
2022-11-14T12:02:30.677Z,9.83
2022-11-14T12:03:30.593Z,9.93
2022-11-14T12:04:30.479Z,9.97
2022-11-14T12:05:30.456Z,9.97
2022-11-14T12:06:30.458Z,9.91
2022-11-14T12:07:30.429Z,9.96
2022-11-14T12:08:30.384Z,9.87
2022-11-14T12:09:55.764Z,9.89
2022-11-14T12:10:30.331Z,9.93
2022-11-14T12:11:30.303Z,9.93
2022-11-14T12:12:30.276Z,9.87
2022-11-14T12:13:30.539Z,9.93
2022-11-14T12:14:30.229Z,9.87
2022-11-14T12:15:30.204Z,9.90
2022-11-14T12:16:30.174Z,10.01
2022-11-14T12:17:30.144Z,9.93
2022-11-14T12:18:30.119Z,10.07
2022-11-14T12:19:30.100Z,10.01
2022-11-14T12:20:30.074Z,10.01
2022-11-14T12:21:30.050Z,10.11
2022-11-14T12:22:30.049Z,10.17
2022-11-14T12:23:30.408Z,10.17
2022-11-14T12:24:29.968Z,10.14
2022-11-14T12:25:29.946Z,10.22
2022-11-14T12:26:29.922Z,10.29
2022-11-14T12:27:29.982Z,10.29
2022-11-14T12:28:29.872Z,10.26
2022-11-14T12:29:29.852Z,10.33
2022-11-14T12:30:29.824Z,10.26
2022-11-14T12:31:29.795Z,10.29
2022-11-14T12:32:29.773Z,10.29
2022-11-14T12:33:30.184Z,10.33
2022-11-14T12:34:29.847Z,10.26
2022-11-14T12:35:29.747Z,10.25
2022-11-14T12:36:29.668Z,10.36
2022-11-14T12:37:29.662Z,10.34
2022-11-14T12:38:29.634Z,10.41
2022-11-14T12:39:29.594Z,10.36
2022-11-14T12:40:29.570Z,10.40
2022-11-14T12:41:29.542Z,10.41
2022-11-14T12:42:29.512Z,10.41
2022-11-14T12:43:34.758Z,10.41
2022-11-14T12:44:29.583Z,10.38
2022-11-14T12:45:29.450Z,10.34
2022-11-14T12:46:29.416Z,10.48
2022-11-14T12:47:29.391Z,10.40
2022-11-14T12:48:29.374Z,10.48
2022-11-14T12:49:35.153Z,10.47
2022-11-14T12:50:29.402Z,10.48
2022-11-14T12:51:29.392Z,10.41
2022-11-14T12:52:29.263Z,10.45
2022-11-14T12:53:29.474Z,10.38
2022-11-14T12:54:29.236Z,10.41
2022-11-14T12:55:29.189Z,10.45
2022-11-14T12:56:29.165Z,10.48
2022-11-14T12:57:29.137Z,10.40
2022-11-14T12:58:29.118Z,10.47
2022-11-14T12:59:29.087Z,10.40
2022-11-14T13:00:29.058Z,10.34
2022-11-14T13:01:29.087Z,10.40
2022-11-14T13:02:29.012Z,10.38
2022-11-14T13:03:29.411Z,10.36
2022-11-14T13:04:28.960Z,10.42
2022-11-14T13:05:28.939Z,10.44
2022-11-14T13:06:28.897Z,10.55
2022-11-14T13:07:34.038Z,10.48
2022-11-14T13:08:28.860Z,10.52
2022-11-14T13:09:28.828Z,10.51
2022-11-14T13:10:28.833Z,10.53
2022-11-14T13:11:28.779Z,10.52
2022-11-14T13:12:28.763Z,10.53
2022-11-14T13:13:29.254Z,10.51
2022-11-14T13:14:28.713Z,10.53
2022-11-14T13:15:28.682Z,10.53
2022-11-14T13:16:28.656Z,10.63
2022-11-14T13:17:28.631Z,10.59